createdAt,value
2022-09-10T00:00:55.341Z,16.20
2022-09-10T00:03:45.173Z,16.20
2022-09-10T00:06:35.251Z,16.10
2022-09-10T00:09:24.217Z,16.10
2022-09-10T00:12:12.410Z,16.10
2022-09-10T00:15:00.572Z,16.00
2022-09-10T00:17:48.764Z,16.00
2022-09-10T00:20:43.626Z,16.00
2022-09-10T00:23:31.936Z,16.00
2022-09-10T00:26:22.386Z,16.00
2022-09-10T00:29:12.800Z,16.00
2022-09-10T00:32:00.971Z,16.00
2022-09-10T00:34:49.279Z,16.00
2022-09-10T00:37:38.776Z,15.90
2022-09-10T00:40:26.935Z,15.90
2022-09-10T00:43:18.758Z,15.90
2022-09-10T00:46:07.202Z,15.90
2022-09-10T00:48:58.192Z,15.80
2022-09-10T00:51:47.080Z,15.80
2022-09-10T00:54:38.807Z,15.70
2022-09-10T00:57:29.086Z,15.60
2022-09-10T01:00:17.860Z,15.50
2022-09-10T01:03:09.013Z,15.30
2022-09-10T01:05:58.197Z,15.20
2022-09-10T01:08:46.391Z,15.10
2022-09-10T01:11:45.973Z,15.00
2022-09-10T01:14:52.615Z,15.00
2022-09-10T01:17:52.713Z,15.00
2022-09-10T01:21:03.981Z,15.00
2022-09-10T01:24:34.622Z,14.90
2022-09-10T01:27:41.225Z,14.90
2022-09-10T01:30:36.031Z,15.00
2022-09-10T01:33:30.145Z,14.90
2022-09-10T01:36:22.374Z,14.90
2022-09-10T01:39:10.710Z,14.90
2022-09-10T01:41:58.852Z,15.00
2022-09-10T01:44:49.710Z,15.00
2022-09-10T01:47:56.500Z,15.00
2022-09-10T01:50:50.775Z,15.00
2022-09-10T01:53:55.992Z,15.00
2022-09-10T01:56:53.542Z,15.00
2022-09-10T01:59:51.881Z,14.90
2022-09-10T02:02:45.247Z,14.90
2022-09-10T02:05:37.350Z,14.80
2022-09-10T02:08:31.141Z,14.80
2022-09-10T02:11:19.797Z,14.90
2022-09-10T02:14:08.413Z,14.90
2022-09-10T02:17:00.153Z,14.80
2022-09-10T02:19:51.580Z,14.80
2022-09-10T02:22:41.609Z,14.80
2022-09-10T02:25:34.316Z,14.70
2022-09-10T02:28:22.826Z,14.60
2022-09-10T02:31:11.147Z,14.60
2022-09-10T02:34:03.109Z,14.60
2022-09-10T02:36:51.253Z,14.50
2022-09-10T02:39:40.156Z,14.50
2022-09-10T02:42:28.364Z,14.60
2022-09-10T02:45:17.115Z,14.70
2022-09-10T02:48:05.515Z,14.70
2022-09-10T02:50:55.399Z,14.80
2022-09-10T02:53:43.546Z,14.70
2022-09-10T02:56:32.426Z,14.80
2022-09-10T02:59:20.568Z,14.70
2022-09-10T03:02:09.745Z,14.70
2022-09-10T03:04:57.955Z,14.70
2022-09-10T03:07:47.954Z,14.70
2022-09-10T03:10:38.482Z,14.70
2022-09-10T03:13:28.006Z,14.70
2022-09-10T03:16:17.078Z,14.70
2022-09-10T03:19:05.233Z,14.70
2022-09-10T03:21:53.511Z,14.70
2022-09-10T03:24:43.136Z,14.60
2022-09-10T03:27:31.394Z,14.70
2022-09-10T03:30:21.184Z,14.70
2022-09-10T03:33:11.719Z,14.60
2022-09-10T03:36:00.480Z,14.60
2022-09-10T03:38:48.672Z,14.60
2022-09-10T03:41:38.227Z,14.70
2022-09-10T03:44:26.374Z,14.60
2022-09-10T03:47:14.543Z,14.60
2022-09-10T03:50:02.656Z,14.60
2022-09-10T03:52:50.806Z,14.60
2022-09-10T03:55:39.199Z,14.70
2022-09-10T03:58:28.822Z,14.70
2022-09-10T04:01:17.155Z,14.70
2022-09-10T04:04:05.437Z,14.80
2022-09-10T04:06:54.122Z,14.80
2022-09-10T04:09:42.529Z,14.80
2022-09-10T04:12:30.980Z,14.80
2022-09-10T04:15:20.602Z,14.80
2022-09-10T04:18:09.899Z,14.80
2022-09-10T04:20:58.102Z,14.80
2022-09-10T04:23:47.659Z,14.70
2022-09-10T04:26:35.778Z,14.80
2022-09-10T04:29:24.100Z,14.80
2022-09-10T04:32:13.537Z,14.80
2022-09-10T04:35:02.359Z,14.90
2022-09-10T04:37:50.461Z,14.80
2022-09-10T04:40:38.568Z,14.80
2022-09-10T04:43:27.145Z,14.80
2022-09-10T04:46:15.302Z,14.80
2022-09-10T04:49:04.855Z,14.80
2022-09-10T04:51:53.014Z,14.80
2022-09-10T04:54:41.688Z,14.90
2022-09-10T04:57:29.848Z,14.90
2022-09-10T05:00:18.453Z,14.90
2022-09-10T05:03:07.132Z,15.00
2022-09-10T05:05:56.669Z,15.00
2022-09-10T05:08:44.819Z,15.00
2022-09-10T05:11:32.963Z,15.00
2022-09-10T05:14:21.074Z,15.10
2022-09-10T05:17:09.259Z,15.10
2022-09-10T05:19:57.406Z,15.10
2022-09-10T05:22:46.886Z,15.00
2022-09-10T05:25:35.125Z,15.00
2022-09-10T05:28:23.303Z,15.00
2022-09-10T05:31:12.857Z,15.10
2022-09-10T05:34:01.745Z,15.10
2022-09-10T05:36:49.876Z,15.00
2022-09-10T05:39:39.341Z,15.10
2022-09-10T05:42:27.523Z,15.10
2022-09-10T05:45:15.911Z,15.20
2022-09-10T05:48:04.465Z,15.20
2022-09-10T05:50:52.603Z,15.20
2022-09-10T05:53:41.482Z,15.30
2022-09-10T05:56:31.664Z,15.30
2022-09-10T05:59:20.444Z,15.40
2022-09-10T06:02:11.240Z,15.50
2022-09-10T06:04:59.901Z,15.50
2022-09-10T06:07:48.037Z,15.50
2022-09-10T06:10:36.143Z,15.70
2022-09-10T06:13:26.001Z,15.70
2022-09-10T06:16:14.214Z,15.70
2022-09-10T06:19:02.952Z,15.80
2022-09-10T06:21:52.375Z,15.80
2022-09-10T06:24:40.493Z,15.90
2022-09-10T06:27:28.626Z,15.90
2022-09-10T06:30:20.700Z,16.00
2022-09-10T06:33:08.806Z,16.10
2022-09-10T06:35:58.374Z,16.20
2022-09-10T06:38:46.735Z,16.30
2022-09-10T06:41:35.238Z,16.40
2022-09-10T06:44:23.386Z,16.40
2022-09-10T06:50:21.993Z,16.60
2022-09-10T06:53:11.581Z,16.70
2022-09-10T06:56:01.333Z,16.70
2022-09-10T06:58:49.579Z,16.70
2022-09-10T07:01:38.319Z,16.80
2022-09-10T07:04:27.796Z,16.90
2022-09-10T07:07:16.040Z,17.00
2022-09-10T07:10:04.415Z,17.10
2022-09-10T07:12:52.562Z,17.10
2022-09-10T07:15:46.434Z,17.20
2022-09-10T07:18:35.000Z,17.30
2022-09-10T07:21:27.427Z,17.30
2022-09-10T07:24:15.645Z,17.40
2022-09-10T07:27:03.792Z,17.40
2022-09-10T07:29:52.165Z,17.40
2022-09-10T07:32:41.371Z,17.50
2022-09-10T07:35:29.585Z,17.60
2022-09-10T07:38:20.537Z,17.80
2022-09-10T07:41:11.316Z,17.90
2022-09-10T07:43:59.607Z,18.00
2022-09-10T07:46:47.766Z,18.10
2022-09-10T07:49:35.903Z,18.20
2022-09-10T07:52:24.040Z,18.30
2022-09-10T07:55:14.261Z,18.30
2022-09-10T07:58:02.438Z,18.40
2022-09-10T08:00:50.624Z,18.40
2022-09-10T08:03:39.873Z,18.50
2022-09-10T08:06:28.041Z,18.50
2022-09-10T08:09:16.393Z,18.50
2022-09-10T08:12:07.648Z,18.60
2022-09-10T08:14:57.711Z,18.60
2022-09-10T08:17:45.837Z,18.60
2022-09-10T08:20:33.933Z,18.70
2022-09-10T08:23:22.753Z,18.80
2022-09-10T08:26:11.013Z,18.80
2022-09-10T08:29:02.731Z,18.80
2022-09-10T08:31:50.877Z,18.80
2022-09-10T08:34:39.036Z,18.80
2022-09-10T08:37:31.298Z,18.90
2022-09-10T08:40:19.485Z,18.90
2022-09-10T08:43:08.403Z,19.00
2022-09-10T08:46:00.617Z,19.00
2022-09-10T08:48:55.108Z,19.00
2022-09-10T08:51:47.898Z,19.10
2022-09-10T08:54:41.550Z,19.20
2022-09-10T08:57:34.520Z,19.20
2022-09-10T09:00:25.654Z,19.30
2022-09-10T09:03:21.356Z,19.40
2022-09-10T09:06:23.267Z,19.50
2022-09-10T09:09:15.877Z,19.60
2022-09-10T09:12:15.659Z,19.80
2022-09-10T09:15:14.535Z,19.90
2022-09-10T09:18:19.224Z,19.90
2022-09-10T09:21:14.151Z,20.00
2022-09-10T09:24:13.983Z,20.00
2022-09-10T09:27:09.890Z,19.90
2022-09-10T09:30:03.342Z,19.80
2022-09-10T09:32:51.673Z,19.70
2022-09-10T09:35:47.697Z,19.70
2022-09-10T09:38:41.273Z,19.80
2022-09-10T09:41:34.984Z,19.90
2022-09-10T09:44:27.815Z,20.00
2022-09-10T09:47:16.029Z,20.10
2022-09-10T09:50:04.438Z,20.00
2022-09-10T09:52:56.560Z,20.10
2022-09-10T09:55:48.095Z,20.00
2022-09-10T09:58:40.160Z,19.90
2022-09-10T10:01:28.974Z,19.80
2022-09-10T10:04:23.175Z,19.90
2022-09-10T10:07:12.884Z,20.10
2022-09-10T10:10:04.781Z,20.20
2022-09-10T10:12:55.250Z,20.40
2022-09-10T10:15:43.451Z,20.50
2022-09-10T10:18:32.708Z,20.70
2022-09-10T10:21:23.429Z,20.90
2022-09-10T10:24:30.015Z,21.00
2022-09-10T10:27:24.149Z,21.30
2022-09-10T10:30:25.006Z,21.40
2022-09-10T10:33:19.249Z,21.50
2022-09-10T10:36:16.077Z,21.60
2022-09-10T10:39:12.786Z,21.60
2022-09-10T10:42:07.485Z,21.50
2022-09-10T10:45:08.192Z,21.30
2022-09-10T10:48:00.145Z,21.20
2022-09-10T10:50:54.700Z,21.10
2022-09-10T10:53:57.948Z,21.10
2022-09-10T10:56:56.894Z,21.20
2022-09-10T10:59:54.048Z,21.40
2022-09-10T11:02:49.706Z,21.50
2022-09-10T11:05:39.538Z,21.50
2022-09-10T11:08:33.263Z,21.60
2022-09-10T11:11:26.207Z,21.90
2022-09-10T11:14:23.147Z,22.20
2022-09-10T11:17:16.769Z,22.40
2022-09-10T11:20:28.633Z,22.60
2022-09-10T11:23:27.765Z,22.40
2022-09-10T11:26:20.903Z,22.20
2022-09-10T11:29:25.367Z,22.10
2022-09-10T11:32:19.938Z,21.90
2022-09-10T11:35:21.509Z,21.70
2022-09-10T11:38:18.222Z,21.60
2022-09-10T11:41:11.964Z,21.60
2022-09-10T11:44:12.190Z,21.60
2022-09-10T11:47:16.971Z,21.60
2022-09-10T11:50:11.881Z,21.70
2022-09-10T11:53:01.406Z,21.60
2022-09-10T11:56:12.885Z,21.70
2022-09-10T11:59:11.355Z,21.90
2022-09-10T12:02:23.558Z,21.90
2022-09-10T12:05:23.605Z,21.80
2022-09-10T12:08:19.669Z,21.70
2022-09-10T12:11:20.191Z,21.60
2022-09-10T12:14:14.566Z,21.70
2022-09-10T12:17:08.700Z,21.80
2022-09-10T12:20:06.708Z,21.90
2022-09-10T12:22:57.380Z,22.10
2022-09-10T12:25:45.615Z,22.30
2022-09-10T12:29:06.020Z,22.60
2022-09-10T12:32:16.901Z,22.70
2022-09-10T12:35:47.818Z,22.80
2022-09-10T12:38:55.174Z,22.90
2022-09-10T12:42:01.224Z,23.00
2022-09-10T12:44:49.632Z,23.10
2022-09-10T12:47:50.276Z,23.10
2022-09-10T12:50:46.251Z,23.00
2022-09-10T12:54:01.975Z,22.70
2022-09-10T12:57:22.633Z,22.70
2022-09-10T13:00:21.920Z,22.60
2022-09-10T13:03:15.371Z,22.50
2022-09-10T13:06:07.119Z,22.40
2022-09-10T13:08:55.776Z,22.10
2022-09-10T13:11:49.530Z,21.90
2022-09-10T13:14:53.806Z,21.60
2022-09-10T13:18:20.697Z,21.50
2022-09-10T13:21:49.055Z,21.50
2022-09-10T13:24:39.228Z,21.40
2022-09-10T13:27:39.846Z,21.30
2022-09-10T13:30:29.844Z,21.20
2022-09-10T13:33:22.608Z,21.10
2022-09-10T13:36:24.593Z,21.10
2022-09-10T13:39:31.931Z,21.00
2022-09-10T13:42:47.175Z,21.10
2022-09-10T13:45:42.033Z,21.30
2022-09-10T13:48:42.045Z,21.30
2022-09-10T13:51:36.298Z,21.30
2022-09-10T13:54:35.683Z,21.30
2022-09-10T13:57:28.387Z,21.50
2022-09-10T14:00:24.904Z,21.70
2022-09-10T14:03:17.348Z,21.80
2022-09-10T14:06:08.774Z,22.00
2022-09-10T14:09:00.660Z,22.20
2022-09-10T14:11:49.560Z,22.40
2022-09-10T14:14:41.450Z,22.50
2022-09-10T14:17:36.911Z,22.40
2022-09-10T14:20:27.437Z,22.40
2022-09-10T14:23:17.023Z,22.40
2022-09-10T14:26:13.370Z,22.40
2022-09-10T14:29:03.451Z,22.30
2022-09-10T14:31:51.907Z,22.30
2022-09-10T14:34:41.358Z,22.30
2022-09-10T14:37:36.885Z,22.40
2022-09-10T14:40:25.035Z,22.40
2022-09-10T14:43:16.590Z,22.40
2022-09-10T14:46:07.825Z,22.30
2022-09-10T14:49:11.507Z,22.30
2022-09-10T14:52:02.289Z,22.00
2022-09-10T14:54:51.218Z,22.00
2022-09-10T14:57:41.283Z,21.90
2022-09-10T15:00:30.061Z,21.90
2022-09-10T15:03:18.240Z,21.80
2022-09-10T15:06:06.655Z,21.80
2022-09-10T15:08:57.039Z,21.80
2022-09-10T15:11:53.533Z,21.70
2022-09-10T15:14:42.063Z,21.70
2022-09-10T15:17:30.223Z,21.70
2022-09-10T15:20:18.584Z,21.70
2022-09-10T15:23:06.942Z,21.70
2022-09-10T15:25:58.839Z,21.80
2022-09-10T15:28:47.023Z,21.80
2022-09-10T15:31:35.740Z,21.80
2022-09-10T15:34:23.925Z,21.80
2022-09-10T15:37:12.461Z,21.80
2022-09-10T15:40:01.215Z,21.90
2022-09-10T15:42:52.257Z,21.90
2022-09-10T15:45:40.658Z,21.80
2022-09-10T15:48:29.263Z,21.80
2022-09-10T15:51:21.410Z,21.80
2022-09-10T15:54:10.790Z,21.90
2022-09-10T15:56:59.206Z,21.90
2022-09-10T15:59:48.908Z,21.90
2022-09-10T16:02:37.597Z,22.00
2022-09-10T16:05:25.744Z,22.30
2022-09-10T16:08:13.880Z,22.60
2022-09-10T16:11:08.625Z,22.80
2022-09-10T16:14:02.143Z,23.00
2022-09-10T16:16:53.848Z,23.10
2022-09-10T16:19:41.991Z,23.10
2022-09-10T16:22:32.164Z,23.20
2022-09-10T16:25:20.323Z,23.60
2022-09-10T16:28:08.453Z,24.10
2022-09-10T16:30:59.174Z,24.20
2022-09-10T16:33:54.070Z,24.40
2022-09-10T16:36:43.548Z,24.50
2022-09-10T16:39:31.748Z,24.50
2022-09-10T16:42:19.994Z,24.20
2022-09-10T16:45:09.414Z,23.90
2022-09-10T16:48:03.967Z,23.50
2022-09-10T16:50:55.154Z,23.10
2022-09-10T16:53:44.714Z,22.60
2022-09-10T16:56:36.951Z,22.30
2022-09-10T16:59:25.790Z,22.00
2022-09-10T17:02:13.969Z,21.80
2022-09-10T17:05:02.318Z,21.60
2022-09-10T17:07:52.071Z,21.40
2022-09-10T17:10:40.619Z,21.20
2022-09-10T17:13:28.766Z,21.10
2022-09-10T17:16:23.299Z,21.00
2022-09-10T17:19:14.113Z,20.90
2022-09-10T17:22:02.281Z,20.80
2022-09-10T17:24:53.850Z,20.80
2022-09-10T17:27:42.140Z,20.70
2022-09-10T17:30:30.349Z,20.60
2022-09-10T17:33:18.510Z,20.60
2022-09-10T17:36:06.960Z,20.50
2022-09-10T17:38:56.275Z,20.40
2022-09-10T17:41:46.236Z,20.40
2022-09-10T17:44:34.390Z,20.40
2022-09-10T17:47:22.585Z,20.40
2022-09-10T17:50:11.126Z,20.30
2022-09-10T17:52:59.241Z,20.20
2022-09-10T17:55:47.540Z,20.20
2022-09-10T17:58:38.250Z,20.10
2022-09-10T18:01:27.131Z,20.10
2022-09-10T18:04:15.786Z,20.00
2022-09-10T18:07:04.076Z,19.90
2022-09-10T18:09:52.223Z,19.80
2022-09-10T18:12:40.460Z,19.70
2022-09-10T18:15:30.880Z,19.60
2022-09-10T18:18:18.986Z,19.60
2022-09-10T18:21:15.128Z,19.60
2022-09-10T18:24:04.975Z,19.40
2022-09-10T18:26:54.755Z,19.40
2022-09-10T18:29:43.040Z,19.20
2022-09-10T18:32:32.503Z,19.10
2022-09-10T18:35:21.013Z,19.10
2022-09-10T18:38:09.282Z,19.00
2022-09-10T18:40:57.431Z,19.00
2022-09-10T18:43:45.956Z,19.00
2022-09-10T18:46:35.291Z,19.10
2022-09-10T18:49:25.903Z,19.10
2022-09-10T18:52:14.140Z,19.00
2022-09-10T18:55:02.258Z,19.00
2022-09-10T18:57:50.738Z,18.90
2022-09-10T19:00:39.878Z,18.80
2022-09-10T19:03:27.986Z,18.80
2022-09-10T19:06:19.757Z,18.70
2022-09-10T19:09:11.077Z,18.70
2022-09-10T19:12:00.487Z,18.70
2022-09-10T19:14:48.643Z,18.70
2022-09-10T19:17:36.830Z,18.70
2022-09-10T19:20:26.522Z,18.70
2022-09-10T19:23:19.658Z,18.70
2022-09-10T19:26:09.878Z,18.60
2022-09-10T19:28:59.117Z,18.60
2022-09-10T19:31:48.740Z,18.50
2022-09-10T19:34:37.108Z,18.50
2022-09-10T19:37:25.823Z,18.40
2022-09-10T19:40:15.578Z,18.40
2022-09-10T19:43:04.026Z,18.40
2022-09-10T19:45:56.004Z,18.40
2022-09-10T19:48:45.271Z,18.40
2022-09-10T19:51:36.404Z,18.40
2022-09-10T19:54:25.698Z,18.40
2022-09-10T19:57:16.053Z,18.30
2022-09-10T20:00:04.730Z,18.30
2022-09-10T20:02:53.916Z,18.40
2022-09-10T20:05:43.232Z,18.30
2022-09-10T20:08:33.919Z,18.30
2022-09-10T20:11:24.323Z,18.30
2022-09-10T20:14:15.014Z,18.20
2022-09-10T20:17:03.437Z,18.30
2022-09-10T20:19:51.800Z,18.30
2022-09-10T20:22:40.090Z,18.30
2022-09-10T20:25:30.847Z,18.30
2022-09-10T20:28:19.794Z,18.30
2022-09-10T20:31:10.756Z,18.20
2022-09-10T20:34:00.579Z,18.20
2022-09-10T20:36:51.103Z,18.20
2022-09-10T20:39:42.187Z,18.20
2022-09-10T20:42:32.893Z,18.20
2022-09-10T20:45:21.383Z,18.20
2022-09-10T20:48:10.836Z,18.20
2022-09-10T20:51:01.002Z,18.20
2022-09-10T20:53:49.762Z,18.20
2022-09-10T20:56:37.909Z,18.20
2022-09-10T20:59:27.849Z,18.20
2022-09-10T21:02:16.196Z,18.20
2022-09-10T21:05:06.808Z,18.10
2022-09-10T21:07:55.898Z,18.20
2022-09-10T21:10:44.039Z,18.20
2022-09-10T21:13:34.216Z,18.10
2022-09-10T21:16:24.165Z,18.10
2022-09-10T21:19:13.805Z,18.10
2022-09-10T21:22:03.682Z,18.10
2022-09-10T21:24:51.795Z,18.00
2022-09-10T21:27:39.923Z,17.90
2022-09-10T21:30:29.161Z,18.00
2022-09-10T21:33:17.308Z,18.00
2022-09-10T21:36:07.343Z,18.00
2022-09-10T21:38:59.511Z,17.90
2022-09-10T21:41:49.423Z,17.90
2022-09-10T21:44:37.674Z,17.90
2022-09-10T21:47:26.236Z,17.90
2022-09-10T21:50:14.416Z,17.90
2022-09-10T21:53:02.933Z,17.90
2022-09-10T21:55:55.893Z,17.90
2022-09-10T21:58:45.353Z,17.90
2022-09-10T22:01:33.828Z,17.90
2022-09-10T22:04:23.325Z,17.90
2022-09-10T22:07:11.998Z,17.90
2022-09-10T22:10:00.196Z,17.80
2022-09-10T22:12:49.759Z,17.80
2022-09-10T22:15:39.757Z,17.70
2022-09-10T22:18:27.940Z,17.80
2022-09-10T22:21:16.534Z,17.70
2022-09-10T22:24:06.074Z,17.70
2022-09-10T22:26:54.563Z,17.70
2022-09-10T22:29:45.251Z,17.60
2022-09-10T22:32:33.903Z,17.60
2022-09-10T22:35:22.029Z,17.60
2022-09-10T22:38:10.639Z,17.50
2022-09-10T22:41:03.037Z,17.50
2022-09-10T22:43:51.329Z,17.40
2022-09-10T22:46:41.336Z,17.40
2022-09-10T22:49:29.497Z,17.30
2022-09-10T22:52:17.687Z,17.30
2022-09-10T22:55:06.914Z,17.30
2022-09-10T22:57:55.051Z,17.20
2022-09-10T23:00:43.147Z,17.10
2022-09-10T23:03:32.650Z,17.10
2022-09-10T23:06:22.348Z,17.10
2022-09-10T23:09:12.822Z,17.10
2022-09-10T23:12:01.275Z,17.10
2022-09-10T23:14:49.458Z,17.10
2022-09-10T23:17:38.507Z,17.10
2022-09-10T23:20:28.265Z,17.10
2022-09-10T23:23:16.412Z,17.10
2022-09-10T23:26:06.809Z,17.10
2022-09-10T23:28:55.609Z,17.10
2022-09-10T23:31:44.162Z,17.10
2022-09-10T23:34:32.322Z,17.00
2022-09-10T23:37:21.762Z,17.00
2022-09-10T23:40:11.887Z,17.00
2022-09-10T23:43:00.072Z,17.00
2022-09-10T23:45:48.204Z,17.00
2022-09-10T23:48:36.767Z,17.10
2022-09-10T23:51:25.155Z,17.10
2022-09-10T23:54:15.290Z,17.00
2022-09-10T23:57:03.744Z,17.00
2022-09-10T23:59:52.249Z,17.00
